Terminal Aerodrome Forecast
Issued by NWS Sioux Falls, SD

Home | Current Version | Previous Version | Graphics & Text | Print | Product List | Glossary On
Versions: 1 2 3 4 5 6 7 8 9 10 11 12 13 14 15
000
FTUS43 KFSD 261126
TAFFSD
TAF
KFSD 261126Z 2612/2712 29006KT P6SM SCT040
     FM261400 32007KT P6SM SCT040 BKN150
     FM262100 34012KT P6SM BKN040
     FM270200 02008KT P6SM SCT040=

USA.gov is the U.S. government's official web portal to all federal, state and local government web resources and services.